createdAt,value
2023-02-19T00:03:11.440Z,60.25
2023-02-19T00:08:14.817Z,60.28
2023-02-19T00:13:19.086Z,60.99
2023-02-19T00:18:23.888Z,61.58
2023-02-19T00:23:28.134Z,61.68
2023-02-19T00:28:31.683Z,61.04
2023-02-19T00:33:37.033Z,60.03
2023-02-19T00:38:42.122Z,61.22
2023-02-19T00:43:45.632Z,60.60
2023-02-19T00:48:50.658Z,61.68
2023-02-19T00:53:54.167Z,60.68
2023-02-19T00:58:57.813Z,60.34
2023-02-19T01:04:04.302Z,61.32
2023-02-19T01:09:09.978Z,61.72
2023-02-19T01:14:13.463Z,60.62
2023-02-19T01:19:18.495Z,59.92
2023-02-19T01:24:22.008Z,61.06
2023-02-19T01:29:25.548Z,59.75
2023-02-19T01:34:33.537Z,60.88
2023-02-19T01:39:36.980Z,60.53
2023-02-19T01:45:20.957Z,61.71
2023-02-19T01:50:27.422Z,59.73
2023-02-19T01:55:31.054Z,60.65
2023-02-19T02:00:34.840Z,60.80
2023-02-19T02:05:46.349Z,61.75
2023-02-19T02:10:50.365Z,59.69
2023-02-19T02:16:01.657Z,61.18
2023-02-19T02:21:15.831Z,61.19
2023-02-19T02:26:37.461Z,60.34
2023-02-19T02:31:44.026Z,61.19
2023-02-19T02:36:50.270Z,60.56
2023-02-19T02:42:11.468Z,61.21
2023-02-19T02:47:30.059Z,60.67
2023-02-19T02:52:52.202Z,61.58
2023-02-19T02:57:55.941Z,59.92
2023-02-19T03:03:00.912Z,59.87
2023-02-19T03:08:07.787Z,60.16
2023-02-19T03:13:30.620Z,61.44
2023-02-19T03:18:55.871Z,61.14
2023-02-19T03:24:16.481Z,60.73
2023-02-19T03:29:26.240Z,61.52
2023-02-19T03:34:34.008Z,60.31
2023-02-19T03:39:44.614Z,61.25
2023-02-19T03:44:53.423Z,60.24
2023-02-19T03:50:02.592Z,61.50
2023-02-19T03:55:09.252Z,60.48
2023-02-19T04:00:18.120Z,60.70
2023-02-19T04:05:24.573Z,61.50
2023-02-19T04:10:28.444Z,61.08
2023-02-19T04:15:33.704Z,60.21
2023-02-19T04:20:43.979Z,60.62
2023-02-19T04:25:49.841Z,60.59
2023-02-19T04:30:53.357Z,61.85
2023-02-19T04:35:58.249Z,60.65
2023-02-19T04:41:01.700Z,61.38
2023-02-19T04:46:05.308Z,60.00
2023-02-19T04:51:10.798Z,60.94
2023-02-19T04:56:16.829Z,61.80
2023-02-19T05:01:20.556Z,60.23
2023-02-19T05:06:25.422Z,61.38
2023-02-19T05:11:28.917Z,61.66
2023-02-19T05:16:33.382Z,61.46
2023-02-19T05:21:38.363Z,61.49
2023-02-19T05:26:44.038Z,61.56
2023-02-19T05:31:49.399Z,60.16
2023-02-19T05:36:54.424Z,60.14
2023-02-19T05:41:57.941Z,60.62
2023-02-19T05:47:01.375Z,61.14
2023-02-19T05:52:06.584Z,61.32
2023-02-19T05:57:10.046Z,61.23
2023-02-19T06:02:13.537Z,61.45
2023-02-19T06:07:18.416Z,60.09
2023-02-19T06:12:21.911Z,61.25
2023-02-19T06:17:25.321Z,61.19
2023-02-19T06:22:30.201Z,60.76
2023-02-19T06:27:33.694Z,60.06
2023-02-19T06:32:37.528Z,60.81
2023-02-19T06:37:42.363Z,61.11
2023-02-19T06:42:45.702Z,61.02
2023-02-19T06:47:49.057Z,61.03
2023-02-19T06:52:53.864Z,61.12
2023-02-19T06:57:57.211Z,60.35
2023-02-19T07:03:00.552Z,59.73
2023-02-19T07:08:05.668Z,59.80
2023-02-19T07:13:09.011Z,60.17
2023-02-19T07:18:12.484Z,60.10
2023-02-19T07:23:17.315Z,60.41
2023-02-19T07:28:20.802Z,61.07
2023-02-19T07:33:24.291Z,59.76
2023-02-19T07:38:29.367Z,60.01
2023-02-19T07:43:34.342Z,60.51
2023-02-19T07:48:38.268Z,60.21
2023-02-19T07:53:43.232Z,59.54
2023-02-19T07:58:47.424Z,59.44
2023-02-19T08:03:51.099Z,60.61
2023-02-19T08:08:57.680Z,60.80
2023-02-19T08:14:01.208Z,60.66
2023-02-19T08:19:04.766Z,59.56
2023-02-19T08:24:09.751Z,60.58
2023-02-19T08:29:13.451Z,59.79
2023-02-19T08:34:17.023Z,60.16
2023-02-19T08:39:22.060Z,59.77
2023-02-19T08:44:25.503Z,60.35
2023-02-19T08:49:29.349Z,59.80
2023-02-19T08:54:35.389Z,60.87
2023-02-19T08:59:39.787Z,61.00
2023-02-19T09:04:43.350Z,60.24
2023-02-19T09:09:48.272Z,60.63
2023-02-19T09:14:52.159Z,60.29
2023-02-19T09:19:55.754Z,60.16
2023-02-19T09:25:00.711Z,60.01
2023-02-19T09:30:04.291Z,57.08
2023-02-19T09:35:08.592Z,57.92
2023-02-19T09:40:14.035Z,57.86
2023-02-19T09:45:21.380Z,57.13
2023-02-19T09:50:30.344Z,56.83
2023-02-19T09:55:36.517Z,56.76
2023-02-19T10:00:41.202Z,57.13
2023-02-19T10:05:44.719Z,57.07
2023-02-19T10:10:49.561Z,57.64
2023-02-19T10:15:54.529Z,57.90
2023-02-19T10:20:58.973Z,57.10
2023-02-19T10:26:03.890Z,58.04
2023-02-19T10:31:15.593Z,57.70
2023-02-19T10:36:26.556Z,56.44
2023-02-19T10:41:32.697Z,56.71
2023-02-19T10:46:37.913Z,57.45
2023-02-19T10:51:42.613Z,57.29
2023-02-19T10:56:47.835Z,57.26
2023-02-19T11:01:59.662Z,54.88
2023-02-19T11:07:10.133Z,55.15
2023-02-19T11:12:15.842Z,55.92
2023-02-19T11:17:25.424Z,56.30
2023-02-19T11:22:34.012Z,56.76
2023-02-19T11:27:55.688Z,55.98
2023-02-19T11:32:59.413Z,56.31
2023-02-19T11:38:03.654Z,56.11
2023-02-19T11:43:16.349Z,56.38
2023-02-19T11:48:34.321Z,56.65
2023-02-19T11:53:43.529Z,57.05
2023-02-19T11:59:00.798Z,56.75
2023-02-19T12:04:28.338Z,56.94
2023-02-19T12:09:47.690Z,57.41
2023-02-19T12:15:22.447Z,56.55
2023-02-19T12:20:32.003Z,57.44
2023-02-19T12:25:50.694Z,56.84
2023-02-19T12:31:14.309Z,56.95
2023-02-19T12:36:22.820Z,57.56
2023-02-19T12:41:37.463Z,57.65
2023-02-19T12:46:46.544Z,57.81
2023-02-19T12:51:51.760Z,57.84
2023-02-19T12:56:58.026Z,58.03
2023-02-19T13:02:07.913Z,58.35
2023-02-19T13:07:14.683Z,58.41
2023-02-19T13:12:22.659Z,57.41
2023-02-19T13:17:30.988Z,56.91
2023-02-19T13:22:55.831Z,56.38
2023-02-19T13:28:07.879Z,56.91
2023-02-19T13:33:25.773Z,56.25
2023-02-19T13:38:29.787Z,56.62
2023-02-19T13:43:35.863Z,56.33
2023-02-19T13:48:42.107Z,55.60
2023-02-19T13:53:59.963Z,55.85
2023-02-19T13:59:29.948Z,56.21
2023-02-19T14:04:47.623Z,55.99
2023-02-19T14:09:51.163Z,56.44
2023-02-19T14:14:55.836Z,56.35
2023-02-19T14:20:02.895Z,56.45
2023-02-19T14:25:20.101Z,56.75
2023-02-19T14:30:24.440Z,55.70
2023-02-19T14:35:33.779Z,55.59
2023-02-19T14:40:41.704Z,55.50
2023-02-19T14:45:47.184Z,56.99
2023-02-19T14:50:54.564Z,56.92
2023-02-19T14:55:58.458Z,56.87
2023-02-19T15:01:01.870Z,57.59
2023-02-19T15:06:08.898Z,57.40
2023-02-19T15:11:16.267Z,57.27
2023-02-19T15:16:20.308Z,58.42
2023-02-19T15:21:27.167Z,58.03
2023-02-19T15:26:34.900Z,59.07
2023-02-19T15:31:38.380Z,58.96
2023-02-19T15:36:43.213Z,59.19
2023-02-19T15:41:52.637Z,59.12
2023-02-19T15:46:56.589Z,59.94
2023-02-19T15:52:06.643Z,60.06
2023-02-19T15:57:17.070Z,59.75
2023-02-19T16:18:51.355Z,61.04
2023-02-19T16:24:00.655Z,60.24
2023-02-19T16:29:04.008Z,57.88
2023-02-19T16:34:20.355Z,57.67
2023-02-19T16:39:25.323Z,57.57
2023-02-19T16:44:32.289Z,57.18
2023-02-19T16:49:38.509Z,57.01
2023-02-19T16:54:41.994Z,56.91
2023-02-19T16:59:45.462Z,56.42
2023-02-19T17:04:51.946Z,56.05
2023-02-19T17:09:55.376Z,56.51
2023-02-19T17:14:58.829Z,57.33
2023-02-19T17:20:03.673Z,56.85
2023-02-19T17:25:07.731Z,56.95
2023-02-19T17:30:13.214Z,57.29
2023-02-19T17:35:18.237Z,57.29
2023-02-19T17:40:32.622Z,57.33
2023-02-19T17:45:36.885Z,57.24
2023-02-19T17:50:41.930Z,57.07
2023-02-19T17:55:45.474Z,57.30
2023-02-19T18:00:48.978Z,57.51
2023-02-19T18:05:53.899Z,57.65
2023-02-19T18:10:57.370Z,56.92
2023-02-19T18:16:00.844Z,57.77
2023-02-19T18:21:08.602Z,58.06
2023-02-19T18:26:13.860Z,57.69
2023-02-19T18:31:17.449Z,57.66
2023-02-19T18:36:22.890Z,57.60
2023-02-19T18:41:26.276Z,57.71
2023-02-19T18:46:32.256Z,57.50
2023-02-19T18:51:37.158Z,57.80
2023-02-19T18:56:44.505Z,57.63
2023-02-19T19:01:47.993Z,58.15
2023-02-19T19:06:52.830Z,58.12
2023-02-19T19:11:56.327Z,57.63
2023-02-19T19:17:00.348Z,58.23
2023-02-19T19:22:05.113Z,57.99
2023-02-19T19:27:08.513Z,57.84
2023-02-19T19:32:12.371Z,57.58
2023-02-19T19:37:17.203Z,57.85
2023-02-19T19:42:20.613Z,57.71
2023-02-19T19:47:23.996Z,56.92
2023-02-19T19:52:28.761Z,57.89
2023-02-19T19:57:32.111Z,57.58
2023-02-19T20:02:35.515Z,58.07
2023-02-19T20:07:40.623Z,58.00
2023-02-19T20:12:44.034Z,57.23
2023-02-19T20:17:47.416Z,57.82
2023-02-19T20:22:53.014Z,57.14
2023-02-19T20:27:56.394Z,57.96
2023-02-19T20:32:59.796Z,58.09
2023-02-19T20:38:04.610Z,57.40
2023-02-19T20:43:08.004Z,57.86
2023-02-19T20:48:11.414Z,58.25
2023-02-19T20:53:16.178Z,57.89
2023-02-19T20:58:21.030Z,57.25
2023-02-19T21:03:24.528Z,58.12
2023-02-19T21:08:29.272Z,57.29
2023-02-19T21:13:32.638Z,58.19
2023-02-19T21:18:36.005Z,57.22
2023-02-19T21:23:40.756Z,57.67
2023-02-19T21:28:44.302Z,57.25
2023-02-19T21:33:47.740Z,57.78
2023-02-19T21:38:52.479Z,57.31
2023-02-19T21:43:56.200Z,57.86
2023-02-19T21:48:59.544Z,57.64
2023-02-19T21:54:05.222Z,57.20
2023-02-19T21:59:08.610Z,57.36
2023-02-19T22:04:14.898Z,57.54
2023-02-19T22:09:19.668Z,57.12
2023-02-19T22:14:23.049Z,58.19
2023-02-19T22:19:26.472Z,57.18
2023-02-19T22:24:31.281Z,57.12
2023-02-19T22:29:34.827Z,58.12
2023-02-19T22:34:40.050Z,56.82
2023-02-19T22:39:46.002Z,58.65
2023-02-19T22:44:49.352Z,58.62
2023-02-19T22:49:52.712Z,57.94
2023-02-19T22:54:57.679Z,57.73
2023-02-19T23:00:01.055Z,57.15
2023-02-19T23:05:04.440Z,58.16
2023-02-19T23:10:10.511Z,57.53
2023-02-19T23:15:13.875Z,57.98
2023-02-19T23:20:17.302Z,58.44
2023-02-19T23:25:22.086Z,58.48
2023-02-19T23:30:26.160Z,58.20
2023-02-19T23:35:30.891Z,58.51
2023-02-19T23:40:36.735Z,57.44
2023-02-19T23:45:40.169Z,57.28
2023-02-19T23:50:43.882Z,58.72
2023-02-19T23:55:48.616Z,57.94
